sensor_id;sensor_type;location;lat;lon;timestamp;P1;durP1;ratioP1;P2;durP2;ratioP2
17566;SDS011;8901;52.088;5.084;2023-04-24T00:01:45;5.97;;;5.47;;
17566;SDS011;8901;52.088;5.084;2023-04-24T00:07:22;5.57;;;5.17;;
17566;SDS011;8901;52.088;5.084;2023-04-24T00:09:49;5.90;;;5.50;;
17566;SDS011;8901;52.088;5.084;2023-04-24T00:12:33;6.23;;;5.87;;
17566;SDS011;8901;52.088;5.084;2023-04-24T00:15:20;6.50;;;6.10;;
17566;SDS011;8901;52.088;5.084;2023-04-24T00:18:02;7.20;;;6.80;;
17566;SDS011;8901;52.088;5.084;2023-04-24T00:20:29;6.40;;;6.10;;
17566;SDS011;8901;52.088;5.084;2023-04-24T00:23:06;6.70;;;6.17;;
17566;SDS011;8901;52.088;5.084;2023-04-24T00:33:53;7.70;;;7.30;;
17566;SDS011;8901;52.088;5.084;2023-04-24T00:36:26;7.83;;;7.43;;
17566;SDS011;8901;52.088;5.084;2023-04-24T00:38:55;7.80;;;7.40;;
17566;SDS011;8901;52.088;5.084;2023-04-24T00:41:24;7.60;;;7.20;;
17566;SDS011;8901;52.088;5.084;2023-04-24T00:46:26;7.30;;;6.90;;
17566;SDS011;8901;52.088;5.084;2023-04-24T00:52:09;8.07;;;7.57;;
17566;SDS011;8901;52.088;5.084;2023-04-24T00:55:01;8.20;;;7.70;;
17566;SDS011;8901;52.088;5.084;2023-04-24T00:57:34;8.20;;;7.70;;
17566;SDS011;8901;52.088;5.084;2023-04-24T01:00:04;8.80;;;8.23;;
17566;SDS011;8901;52.088;5.084;2023-04-24T01:05:27;8.73;;;8.20;;
17566;SDS011;8901;52.088;5.084;2023-04-24T01:08:05;9.27;;;8.67;;
17566;SDS011;8901;52.088;5.084;2023-04-24T01:10:36;9.03;;;8.43;;
17566;SDS011;8901;52.088;5.084;2023-04-24T01:13:04;9.20;;;8.50;;
17566;SDS011;8901;52.088;5.084;2023-04-24T01:15:32;9.27;;;8.67;;
17566;SDS011;8901;52.088;5.084;2023-04-24T01:17:59;8.30;;;7.80;;
17566;SDS011;8901;52.088;5.084;2023-04-24T01:20:26;8.77;;;8.27;;
17566;SDS011;8901;52.088;5.084;2023-04-24T01:23:06;9.03;;;8.50;;
17566;SDS011;8901;52.088;5.084;2023-04-24T01:25:34;9.47;;;8.87;;
17566;SDS011;8901;52.088;5.084;2023-04-24T01:28:01;9.87;;;9.23;;
17566;SDS011;8901;52.088;5.084;2023-04-24T01:30:29;10.53;;;9.93;;
17566;SDS011;8901;52.088;5.084;2023-04-24T01:32:56;9.73;;;9.03;;
17566;SDS011;8901;52.088;5.084;2023-04-24T01:35:26;10.27;;;9.57;;
17566;SDS011;8901;52.088;5.084;2023-04-24T01:37:56;10.70;;;10.00;;
17566;SDS011;8901;52.088;5.084;2023-04-24T01:40:28;10.80;;;10.10;;
17566;SDS011;8901;52.088;5.084;2023-04-24T01:42:55;11.10;;;10.30;;
17566;SDS011;8901;52.088;5.084;2023-04-24T01:45:22;9.70;;;9.00;;
17566;SDS011;8901;52.088;5.084;2023-04-24T01:47:50;10.50;;;9.90;;
17566;SDS011;8901;52.088;5.084;2023-04-24T01:50:17;10.00;;;9.40;;
17566;SDS011;8901;52.088;5.084;2023-04-24T01:52:47;10.20;;;9.50;;
17566;SDS011;8901;52.088;5.084;2023-04-24T01:55:14;10.43;;;9.83;;
17566;SDS011;8901;52.088;5.084;2023-04-24T01:57:43;9.50;;;9.00;;
17566;SDS011;8901;52.088;5.084;2023-04-24T02:00:11;10.43;;;9.73;;
17566;SDS011;8901;52.088;5.084;2023-04-24T02:02:39;10.70;;;10.00;;
17566;SDS011;8901;52.088;5.084;2023-04-24T02:05:07;10.57;;;9.87;;
17566;SDS011;8901;52.088;5.084;2023-04-24T02:07:36;10.30;;;9.70;;
17566;SDS011;8901;52.088;5.084;2023-04-24T02:10:03;11.03;;;10.23;;
17566;SDS011;8901;52.088;5.084;2023-04-24T02:12:36;11.20;;;10.50;;
17566;SDS011;8901;52.088;5.084;2023-04-24T02:15:05;10.90;;;10.20;;
17566;SDS011;8901;52.088;5.084;2023-04-24T02:17:32;10.17;;;9.57;;
17566;SDS011;8901;52.088;5.084;2023-04-24T02:20:00;10.10;;;9.50;;
17566;SDS011;8901;52.088;5.084;2023-04-24T02:22:27;10.97;;;10.17;;
17566;SDS011;8901;52.088;5.084;2023-04-24T02:24:54;11.23;;;10.50;;
17566;SDS011;8901;52.088;5.084;2023-04-24T02:27:22;10.90;;;10.00;;
17566;SDS011;8901;52.088;5.084;2023-04-24T02:29:49;11.00;;;10.40;;
17566;SDS011;8901;52.088;5.084;2023-04-24T02:32:18;10.97;;;10.37;;
17566;SDS011;8901;52.088;5.084;2023-04-24T02:34:45;12.40;;;11.60;;
17566;SDS011;8901;52.088;5.084;2023-04-24T02:37:12;10.90;;;10.20;;
17566;SDS011;8901;52.088;5.084;2023-04-24T02:39:39;8.97;;;8.40;;
17566;SDS011;8901;52.088;5.084;2023-04-24T02:42:07;9.83;;;8.77;;
17566;SDS011;8901;52.088;5.084;2023-04-24T02:44:34;10.10;;;9.50;;
17566;SDS011;8901;52.088;5.084;2023-04-24T02:47:01;10.07;;;9.40;;
17566;SDS011;8901;52.088;5.084;2023-04-24T02:49:40;9.70;;;9.10;;
17566;SDS011;8901;52.088;5.084;2023-04-24T02:52:12;9.70;;;9.03;;
17566;SDS011;8901;52.088;5.084;2023-04-24T02:54:39;9.93;;;9.23;;
17566;SDS011;8901;52.088;5.084;2023-04-24T02:57:06;10.10;;;9.50;;
17566;SDS011;8901;52.088;5.084;2023-04-24T02:59:34;10.50;;;9.83;;
17566;SDS011;8901;52.088;5.084;2023-04-24T03:02:01;11.43;;;10.60;;
17566;SDS011;8901;52.088;5.084;2023-04-24T03:04:28;11.90;;;11.10;;
17566;SDS011;8901;52.088;5.084;2023-04-24T03:07:00;10.63;;;9.93;;
17566;SDS011;8901;52.088;5.084;2023-04-24T03:09:29;10.63;;;9.83;;
17566;SDS011;8901;52.088;5.084;2023-04-24T03:11:56;12.90;;;12.00;;
17566;SDS011;8901;52.088;5.084;2023-04-24T03:14:23;11.57;;;10.87;;
17566;SDS011;8901;52.088;5.084;2023-04-24T03:16:51;11.70;;;10.90;;
17566;SDS011;8901;52.088;5.084;2023-04-24T03:19:18;10.70;;;10.07;;
17566;SDS011;8901;52.088;5.084;2023-04-24T03:21:46;11.20;;;10.50;;
17566;SDS011;8901;52.088;5.084;2023-04-24T03:24:15;10.83;;;10.07;;
17566;SDS011;8901;52.088;5.084;2023-04-24T03:26:44;11.03;;;10.23;;
17566;SDS011;8901;52.088;5.084;2023-04-24T03:29:11;9.97;;;9.37;;
17566;SDS011;8901;52.088;5.084;2023-04-24T03:31:40;9.27;;;8.67;;
17566;SDS011;8901;52.088;5.084;2023-04-24T03:34:07;9.50;;;8.90;;
17566;SDS011;8901;52.088;5.084;2023-04-24T03:36:35;10.87;;;10.27;;
17566;SDS011;8901;52.088;5.084;2023-04-24T03:39:02;9.73;;;9.00;;
17566;SDS011;8901;52.088;5.084;2023-04-24T03:41:31;10.23;;;9.53;;
17566;SDS011;8901;52.088;5.084;2023-04-24T03:43:59;10.77;;;9.87;;
17566;SDS011;8901;52.088;5.084;2023-04-24T03:46:26;9.33;;;8.73;;
17566;SDS011;8901;52.088;5.084;2023-04-24T03:48:53;9.17;;;8.57;;
17566;SDS011;8901;52.088;5.084;2023-04-24T03:51:20;10.60;;;9.80;;
17566;SDS011;8901;52.088;5.084;2023-04-24T03:53:47;11.03;;;10.20;;
17566;SDS011;8901;52.088;5.084;2023-04-24T03:56:15;11.53;;;10.77;;
17566;SDS011;8901;52.088;5.084;2023-04-24T03:58:56;10.43;;;9.80;;
17566;SDS011;8901;52.088;5.084;2023-04-24T04:01:26;12.70;;;11.73;;
17566;SDS011;8901;52.088;5.084;2023-04-24T04:03:55;11.53;;;10.73;;
17566;SDS011;8901;52.088;5.084;2023-04-24T04:06:22;12.27;;;11.27;;
17566;SDS011;8901;52.088;5.084;2023-04-24T04:08:49;11.07;;;10.27;;
17566;SDS011;8901;52.088;5.084;2023-04-24T04:11:16;12.07;;;11.27;;
17566;SDS011;8901;52.088;5.084;2023-04-24T04:13:45;8.50;;;7.93;;
17566;SDS011;8901;52.088;5.084;2023-04-24T04:16:13;9.33;;;8.83;;
17566;SDS011;8901;52.088;5.084;2023-04-24T04:18:41;11.17;;;10.47;;
17566;SDS011;8901;52.088;5.084;2023-04-24T04:21:09;9.90;;;9.30;;
17566;SDS011;8901;52.088;5.084;2023-04-24T04:23:36;10.57;;;9.87;;
17566;SDS011;8901;52.088;5.084;2023-04-24T04:26:03;10.70;;;10.10;;
17566;SDS011;8901;52.088;5.084;2023-04-24T04:28:31;9.90;;;9.30;;
17566;SDS011;8901;52.088;5.084;2023-04-24T04:31:00;9.70;;;9.10;;
17566;SDS011;8901;52.088;5.084;2023-04-24T04:33:27;8.90;;;8.10;;
17566;SDS011;8901;52.088;5.084;2023-04-24T04:35:54;8.00;;;7.50;;
17566;SDS011;8901;52.088;5.084;2023-04-24T04:38:22;7.67;;;7.10;;
17566;SDS011;8901;52.088;5.084;2023-04-24T04:40:51;7.00;;;6.50;;
17566;SDS011;8901;52.088;5.084;2023-04-24T04:43:25;6.83;;;6.33;;
17566;SDS011;8901;52.088;5.084;2023-04-24T04:45:52;7.60;;;6.90;;
17566;SDS011;8901;52.088;5.084;2023-04-24T04:48:22;7.03;;;6.53;;
17566;SDS011;8901;52.088;5.084;2023-04-24T04:50:49;5.70;;;5.30;;
17566;SDS011;8901;52.088;5.084;2023-04-24T04:53:17;5.93;;;5.43;;
17566;SDS011;8901;52.088;5.084;2023-04-24T04:55:44;5.50;;;5.10;;
17566;SDS011;8901;52.088;5.084;2023-04-24T04:58:11;5.37;;;4.97;;
17566;SDS011;8901;52.088;5.084;2023-04-24T05:00:44;5.13;;;4.80;;
17566;SDS011;8901;52.088;5.084;2023-04-24T05:03:11;4.10;;;3.90;;
17566;SDS011;8901;52.088;5.084;2023-04-24T05:05:40;3.97;;;3.77;;
17566;SDS011;8901;52.088;5.084;2023-04-24T05:08:08;4.70;;;4.40;;
17566;SDS011;8901;52.088;5.084;2023-04-24T05:10:35;5.10;;;4.80;;
17566;SDS011;8901;52.088;5.084;2023-04-24T05:13:02;4.80;;;4.50;;
17566;SDS011;8901;52.088;5.084;2023-04-24T05:15:30;4.60;;;4.40;;
17566;SDS011;8901;52.088;5.084;2023-04-24T05:17:57;4.90;;;4.60;;
17566;SDS011;8901;52.088;5.084;2023-04-24T05:20:24;4.20;;;4.00;;
17566;SDS011;8901;52.088;5.084;2023-04-24T05:22:53;4.30;;;4.00;;
17566;SDS011;8901;52.088;5.084;2023-04-24T05:25:20;4.20;;;4.00;;
17566;SDS011;8901;52.088;5.084;2023-04-24T05:27:47;4.40;;;4.20;;
17566;SDS011;8901;52.088;5.084;2023-04-24T05:30:14;5.53;;;5.23;;
17566;SDS011;8901;52.088;5.084;2023-04-24T05:32:41;5.73;;;5.40;;
17566;SDS011;8901;52.088;5.084;2023-04-24T05:35:09;6.10;;;5.70;;
17566;SDS011;8901;52.088;5.084;2023-04-24T05:37:36;6.03;;;5.63;;
17566;SDS011;8901;52.088;5.084;2023-04-24T05:40:06;5.80;;;5.47;;
17566;SDS011;8901;52.088;5.084;2023-04-24T05:42:33;6.00;;;5.60;;
17566;SDS011;8901;52.088;5.084;2023-04-24T05:45:01;6.60;;;6.20;;
17566;SDS011;8901;52.088;5.084;2023-04-24T05:47:28;6.43;;;6.03;;
17566;SDS011;8901;52.088;5.084;2023-04-24T05:49:55;7.23;;;5.73;;
17566;SDS011;8901;52.088;5.084;2023-04-24T05:52:22;6.73;;;6.33;;
17566;SDS011;8901;52.088;5.084;2023-04-24T05:54:50;7.10;;;6.50;;
17566;SDS011;8901;52.088;5.084;2023-04-24T05:57:18;5.90;;;5.50;;
17566;SDS011;8901;52.088;5.084;2023-04-24T05:59:46;4.83;;;4.50;;
17566;SDS011;8901;52.088;5.084;2023-04-24T06:02:13;4.60;;;4.20;;
17566;SDS011;8901;52.088;5.084;2023-04-24T06:04:40;3.40;;;3.20;;
17566;SDS011;8901;52.088;5.084;2023-04-24T06:07:08;5.00;;;4.00;;
17566;SDS011;8901;52.088;5.084;2023-04-24T06:09:36;5.67;;;5.17;;
17566;SDS011;8901;52.088;5.084;2023-04-24T06:12:03;6.37;;;5.70;;
17566;SDS011;8901;52.088;5.084;2023-04-24T06:14:34;8.87;;;6.50;;
17566;SDS011;8901;52.088;5.084;2023-04-24T06:17:01;9.90;;;7.60;;
17566;SDS011;8901;52.088;5.084;2023-04-24T06:19:28;9.77;;;8.70;;
17566;SDS011;8901;52.088;5.084;2023-04-24T06:21:58;11.00;;;10.00;;
17566;SDS011;8901;52.088;5.084;2023-04-24T06:24:26;14.63;;;10.03;;
17566;SDS011;8901;52.088;5.084;2023-04-24T06:26:54;10.50;;;8.70;;
17566;SDS011;8901;52.088;5.084;2023-04-24T06:29:21;12.57;;;9.57;;
17566;SDS011;8901;52.088;5.084;2023-04-24T06:31:50;11.93;;;10.60;;
17566;SDS011;8901;52.088;5.084;2023-04-24T06:34:17;15.37;;;10.70;;
17566;SDS011;8901;52.088;5.084;2023-04-24T06:36:44;11.47;;;8.93;;
17566;SDS011;8901;52.088;5.084;2023-04-24T06:39:11;11.60;;;9.27;;
17566;SDS011;8901;52.088;5.084;2023-04-24T06:41:38;15.30;;;8.87;;
17566;SDS011;8901;52.088;5.084;2023-04-24T06:44:06;14.33;;;9.03;;
17566;SDS011;8901;52.088;5.084;2023-04-24T06:46:33;13.70;;;8.30;;
17566;SDS011;8901;52.088;5.084;2023-04-24T06:49:01;11.23;;;7.13;;
17566;SDS011;8901;52.088;5.084;2023-04-24T06:51:28;14.53;;;8.73;;
17566;SDS011;8901;52.088;5.084;2023-04-24T06:53:58;13.43;;;8.03;;
17566;SDS011;8901;52.088;5.084;2023-04-24T06:56:25;14.17;;;7.60;;
17566;SDS011;8901;52.088;5.084;2023-04-24T06:58:53;13.47;;;7.73;;
17566;SDS011;8901;52.088;5.084;2023-04-24T07:01:21;11.37;;;7.57;;
17566;SDS011;8901;52.088;5.084;2023-04-24T07:03:48;10.00;;;6.10;;
17566;SDS011;8901;52.088;5.084;2023-04-24T07:06:16;14.47;;;8.00;;
17566;SDS011;8901;52.088;5.084;2023-04-24T07:08:46;9.63;;;6.87;;
17566;SDS011;8901;52.088;5.084;2023-04-24T07:11:13;11.30;;;6.57;;
17566;SDS011;8901;52.088;5.084;2023-04-24T07:13:40;12.57;;;6.87;;
17566;SDS011;8901;52.088;5.084;2023-04-24T07:16:08;12.53;;;6.83;;
17566;SDS011;8901;52.088;5.084;2023-04-24T07:18:36;14.47;;;7.53;;
17566;SDS011;8901;52.088;5.084;2023-04-24T07:21:04;14.33;;;6.90;;
17566;SDS011;8901;52.088;5.084;2023-04-24T07:23:32;12.50;;;7.43;;
17566;SDS011;8901;52.088;5.084;2023-04-24T07:25:59;14.70;;;6.67;;
17566;SDS011;8901;52.088;5.084;2023-04-24T07:28:27;14.83;;;6.20;;
17566;SDS011;8901;52.088;5.084;2023-04-24T07:30:56;13.90;;;6.17;;
17566;SDS011;8901;52.088;5.084;2023-04-24T07:33:24;16.97;;;7.13;;
17566;SDS011;8901;52.088;5.084;2023-04-24T07:35:52;19.70;;;6.27;;
17566;SDS011;8901;52.088;5.084;2023-04-24T07:38:19;17.37;;;6.93;;
17566;SDS011;8901;52.088;5.084;2023-04-24T07:40:48;15.20;;;6.57;;
17566;SDS011;8901;52.088;5.084;2023-04-24T07:43:16;11.80;;;4.90;;
17566;SDS011;8901;52.088;5.084;2023-04-24T07:45:43;12.57;;;5.43;;
17566;SDS011;8901;52.088;5.084;2023-04-24T07:48:10;16.57;;;6.13;;
17566;SDS011;8901;52.088;5.084;2023-04-24T07:50:39;16.40;;;6.60;;
17566;SDS011;8901;52.088;5.084;2023-04-24T07:53:07;18.20;;;5.63;;
17566;SDS011;8901;52.088;5.084;2023-04-24T07:55:34;15.77;;;5.20;;
17566;SDS011;8901;52.088;5.084;2023-04-24T07:58:02;12.37;;;4.80;;
17566;SDS011;8901;52.088;5.084;2023-04-24T08:00:29;14.50;;;5.40;;
17566;SDS011;8901;52.088;5.084;2023-04-24T08:02:56;18.87;;;6.23;;
17566;SDS011;8901;52.088;5.084;2023-04-24T08:05:24;15.03;;;5.27;;
17566;SDS011;8901;52.088;5.084;2023-04-24T08:07:53;12.83;;;5.33;;
17566;SDS011;8901;52.088;5.084;2023-04-24T08:10:20;11.43;;;4.27;;
17566;SDS011;8901;52.088;5.084;2023-04-24T08:12:47;11.87;;;4.73;;
17566;SDS011;8901;52.088;5.084;2023-04-24T08:15:16;11.80;;;4.77;;
17566;SDS011;8901;52.088;5.084;2023-04-24T08:17:43;13.90;;;4.43;;
17566;SDS011;8901;52.088;5.084;2023-04-24T08:20:11;12.10;;;4.80;;
17566;SDS011;8901;52.088;5.084;2023-04-24T08:22:39;10.83;;;4.40;;
17566;SDS011;8901;52.088;5.084;2023-04-24T08:25:06;10.40;;;4.37;;
17566;SDS011;8901;52.088;5.084;2023-04-24T08:27:34;13.13;;;4.10;;
17566;SDS011;8901;52.088;5.084;2023-04-24T08:30:02;8.63;;;4.00;;
17566;SDS011;8901;52.088;5.084;2023-04-24T08:32:31;13.23;;;3.70;;
17566;SDS011;8901;52.088;5.084;2023-04-24T08:34:58;14.13;;;4.60;;
17566;SDS011;8901;52.088;5.084;2023-04-24T08:37:26;9.70;;;4.03;;
17566;SDS011;8901;52.088;5.084;2023-04-24T08:39:53;7.60;;;3.63;;
17566;SDS011;8901;52.088;5.084;2023-04-24T08:42:21;10.83;;;3.87;;
17566;SDS011;8901;52.088;5.084;2023-04-24T08:44:50;12.30;;;4.13;;
17566;SDS011;8901;52.088;5.084;2023-04-24T08:47:18;11.43;;;4.20;;
17566;SDS011;8901;52.088;5.084;2023-04-24T08:49:48;12.23;;;4.77;;
17566;SDS011;8901;52.088;5.084;2023-04-24T08:52:18;15.27;;;5.63;;
17566;SDS011;8901;52.088;5.084;2023-04-24T08:54:46;14.73;;;5.77;;
17566;SDS011;8901;52.088;5.084;2023-04-24T08:57:14;9.70;;;5.47;;
17566;SDS011;8901;52.088;5.084;2023-04-24T08:59:42;7.77;;;5.23;;
17566;SDS011;8901;52.088;5.084;2023-04-24T09:02:10;10.13;;;5.77;;
17566;SDS011;8901;52.088;5.084;2023-04-24T09:04:37;11.90;;;6.30;;
17566;SDS011;8901;52.088;5.084;2023-04-24T09:07:06;8.53;;;5.50;;
17566;SDS011;8901;52.088;5.084;2023-04-24T09:09:35;8.27;;;5.23;;
17566;SDS011;8901;52.088;5.084;2023-04-24T09:12:02;10.00;;;5.60;;
17566;SDS011;8901;52.088;5.084;2023-04-24T09:14:36;10.67;;;5.30;;
17566;SDS011;8901;52.088;5.084;2023-04-24T09:17:07;8.40;;;5.50;;
17566;SDS011;8901;52.088;5.084;2023-04-24T09:19:34;10.97;;;5.43;;
17566;SDS011;8901;52.088;5.084;2023-04-24T09:22:05;7.37;;;4.67;;
17566;SDS011;8901;52.088;5.084;2023-04-24T09:24:36;7.30;;;5.40;;
17566;SDS011;8901;52.088;5.084;2023-04-24T09:27:03;14.70;;;5.67;;
17566;SDS011;8901;52.088;5.084;2023-04-24T09:29:30;9.50;;;5.53;;
17566;SDS011;8901;52.088;5.084;2023-04-24T09:31:58;7.50;;;5.70;;
17566;SDS011;8901;52.088;5.084;2023-04-24T09:34:25;10.60;;;6.30;;
17566;SDS011;8901;52.088;5.084;2023-04-24T09:36:53;8.00;;;5.90;;
17566;SDS011;8901;52.088;5.084;2023-04-24T09:39:22;9.17;;;5.93;;
17566;SDS011;8901;52.088;5.084;2023-04-24T09:41:49;10.83;;;6.50;;
17566;SDS011;8901;52.088;5.084;2023-04-24T09:44:17;7.73;;;6.97;;
17566;SDS011;8901;52.088;5.084;2023-04-24T09:46:49;12.50;;;7.63;;
17566;SDS011;8901;52.088;5.084;2023-04-24T09:49:22;10.60;;;7.07;;
17566;SDS011;8901;52.088;5.084;2023-04-24T09:51:50;8.73;;;7.47;;
17566;SDS011;8901;52.088;5.084;2023-04-24T09:54:17;8.37;;;7.50;;
17566;SDS011;8901;52.088;5.084;2023-04-24T09:56:50;9.47;;;7.30;;
17566;SDS011;8901;52.088;5.084;2023-04-24T09:59:17;10.30;;;7.30;;
17566;SDS011;8901;52.088;5.084;2023-04-24T10:01:45;6.83;;;6.13;;
17566;SDS011;8901;52.088;5.084;2023-04-24T10:04:17;10.10;;;7.13;;
17566;SDS011;8901;52.088;5.084;2023-04-24T10:06:48;6.93;;;6.17;;
17566;SDS011;8901;52.088;5.084;2023-04-24T10:09:16;6.50;;;5.83;;
17566;SDS011;8901;52.088;5.084;2023-04-24T10:11:44;6.70;;;6.00;;
17566;SDS011;8901;52.088;5.084;2023-04-24T10:14:17;6.37;;;5.77;;
17566;SDS011;8901;52.088;5.084;2023-04-24T10:16:46;8.00;;;5.77;;
17566;SDS011;8901;52.088;5.084;2023-04-24T10:19:13;6.90;;;6.30;;
17566;SDS011;8901;52.088;5.084;2023-04-24T10:21:43;6.60;;;6.00;;
17566;SDS011;8901;52.088;5.084;2023-04-24T10:24:17;7.33;;;6.50;;
17566;SDS011;8901;52.088;5.084;2023-04-24T10:26:46;7.70;;;7.00;;
17566;SDS011;8901;52.088;5.084;2023-04-24T10:29:16;7.83;;;7.23;;
17566;SDS011;8901;52.088;5.084;2023-04-24T10:31:44;7.67;;;6.77;;
17566;SDS011;8901;52.088;5.084;2023-04-24T10:34:13;6.87;;;6.37;;
17566;SDS011;8901;52.088;5.084;2023-04-24T10:36:43;7.93;;;7.40;;
17566;SDS011;8901;52.088;5.084;2023-04-24T10:39:12;8.90;;;8.17;;
17566;SDS011;8901;52.088;5.084;2023-04-24T10:41:40;9.03;;;8.43;;
17566;SDS011;8901;52.088;5.084;2023-04-24T10:44:13;9.53;;;8.73;;
17566;SDS011;8901;52.088;5.084;2023-04-24T10:46:43;9.90;;;9.00;;
17566;SDS011;8901;52.088;5.084;2023-04-24T10:49:12;9.53;;;8.80;;
17566;SDS011;8901;52.088;5.084;2023-04-24T10:51:45;9.20;;;8.60;;
17566;SDS011;8901;52.088;5.084;2023-04-24T10:54:22;8.53;;;7.83;;
17566;SDS011;8901;52.088;5.084;2023-04-24T10:56:50;8.60;;;7.73;;
17566;SDS011;8901;52.088;5.084;2023-04-24T10:59:24;8.63;;;7.93;;
17566;SDS011;8901;52.088;5.084;2023-04-24T11:01:55;8.60;;;7.70;;
17566;SDS011;8901;52.088;5.084;2023-04-24T11:04:32;9.47;;;6.20;;
17566;SDS011;8901;52.088;5.084;2023-04-24T11:07:00;7.33;;;6.83;;
17566;SDS011;8901;52.088;5.084;2023-04-24T11:09:31;7.93;;;7.33;;
17566;SDS011;8901;52.088;5.084;2023-04-24T11:12:03;9.13;;;6.60;;
17566;SDS011;8901;52.088;5.084;2023-04-24T11:17:28;7.00;;;6.10;;
17566;SDS011;8901;52.088;5.084;2023-04-24T11:20:00;6.40;;;5.00;;
17566;SDS011;8901;52.088;5.084;2023-04-24T11:25:20;5.33;;;4.47;;
17566;SDS011;8901;52.088;5.084;2023-04-24T11:27:48;4.63;;;4.27;;
17566;SDS011;8901;52.088;5.084;2023-04-24T11:30:16;5.67;;;4.90;;
17566;SDS011;8901;52.088;5.084;2023-04-24T11:32:47;5.10;;;3.80;;
17566;SDS011;8901;52.088;5.084;2023-04-24T11:35:15;3.77;;;3.47;;
17566;SDS011;8901;52.088;5.084;2023-04-24T11:37:44;5.33;;;4.10;;
17566;SDS011;8901;52.088;5.084;2023-04-24T11:40:12;4.10;;;3.70;;
17566;SDS011;8901;52.088;5.084;2023-04-24T11:42:40;6.57;;;4.20;;
17566;SDS011;8901;52.088;5.084;2023-04-24T11:45:08;10.40;;;4.40;;
17566;SDS011;8901;52.088;5.084;2023-04-24T11:47:36;9.63;;;4.23;;
17566;SDS011;8901;52.088;5.084;2023-04-24T11:50:05;8.60;;;4.13;;
17566;SDS011;8901;52.088;5.084;2023-04-24T11:52:33;8.43;;;4.30;;
17566;SDS011;8901;52.088;5.084;2023-04-24T11:55:03;7.53;;;4.07;;
17566;SDS011;8901;52.088;5.084;2023-04-24T11:57:31;15.53;;;4.90;;
17566;SDS011;8901;52.088;5.084;2023-04-24T11:59:59;7.77;;;4.40;;
17566;SDS011;8901;52.088;5.084;2023-04-24T12:02:27;9.13;;;4.57;;
17566;SDS011;8901;52.088;5.084;2023-04-24T12:04:54;8.80;;;4.33;;
17566;SDS011;8901;52.088;5.084;2023-04-24T12:07:39;8.90;;;5.10;;
17566;SDS011;8901;52.088;5.084;2023-04-24T12:10:07;9.15;;;4.35;;
17566;SDS011;8901;52.088;5.084;2023-04-24T12:12:37;9.27;;;6.43;;
17566;SDS011;8901;52.088;5.084;2023-04-24T12:15:12;11.20;;;6.10;;
17566;SDS011;8901;52.088;5.084;2023-04-24T12:17:40;10.13;;;9.17;;
17566;SDS011;8901;52.088;5.084;2023-04-24T12:20:08;10.80;;;9.07;;
17566;SDS011;8901;52.088;5.084;2023-04-24T12:22:47;8.73;;;7.73;;
17566;SDS011;8901;52.088;5.084;2023-04-24T12:25:17;13.13;;;8.57;;
17566;SDS011;8901;52.088;5.084;2023-04-24T12:27:46;12.83;;;8.30;;
17566;SDS011;8901;52.088;5.084;2023-04-24T12:30:14;9.70;;;8.70;;
17566;SDS011;8901;52.088;5.084;2023-04-24T12:32:42;11.33;;;8.90;;
17566;SDS011;8901;52.088;5.084;2023-04-24T12:35:09;9.07;;;8.27;;
17566;SDS011;8901;52.088;5.084;2023-04-24T12:37:36;12.20;;;9.93;;
17566;SDS011;8901;52.088;5.084;2023-04-24T12:40:08;12.00;;;10.07;;
17566;SDS011;8901;52.088;5.084;2023-04-24T12:42:42;12.43;;;11.23;;
17566;SDS011;8901;52.088;5.084;2023-04-24T12:45:17;12.80;;;11.60;;
17566;SDS011;8901;52.088;5.084;2023-04-24T12:47:50;12.10;;;11.10;;
17566;SDS011;8901;52.088;5.084;2023-04-24T12:50:25;10.03;;;9.00;;
17566;SDS011;8901;52.088;5.084;2023-04-24T12:52:55;14.57;;;9.73;;
17566;SDS011;8901;52.088;5.084;2023-04-24T12:55:27;9.13;;;8.10;;
17566;SDS011;8901;52.088;5.084;2023-04-24T13:00:25;14.43;;;8.87;;
17566;SDS011;8901;52.088;5.084;2023-04-24T13:02:54;11.70;;;9.00;;
17566;SDS011;8901;52.088;5.084;2023-04-24T13:05:28;12.80;;;8.60;;
17566;SDS011;8901;52.088;5.084;2023-04-24T13:07:57;13.67;;;10.13;;
17566;SDS011;8901;52.088;5.084;2023-04-24T13:10:25;14.07;;;9.27;;
17566;SDS011;8901;52.088;5.084;2023-04-24T13:12:53;14.40;;;10.10;;
17566;SDS011;8901;52.088;5.084;2023-04-24T13:15:27;10.57;;;8.90;;
17566;SDS011;8901;52.088;5.084;2023-04-24T13:20:55;15.80;;;14.20;;
17566;SDS011;8901;52.088;5.084;2023-04-24T13:23:31;14.03;;;12.53;;
17566;SDS011;8901;52.088;5.084;2023-04-24T13:26:18;19.33;;;12.60;;
17566;SDS011;8901;52.088;5.084;2023-04-24T13:28:45;13.30;;;12.00;;
17566;SDS011;8901;52.088;5.084;2023-04-24T13:31:26;15.53;;;12.70;;
17566;SDS011;8901;52.088;5.084;2023-04-24T13:34:01;15.37;;;12.87;;
17566;SDS011;8901;52.088;5.084;2023-04-24T13:36:30;15.40;;;13.87;;
17566;SDS011;8901;52.088;5.084;2023-04-24T13:38:58;14.67;;;13.40;;
17566;SDS011;8901;52.088;5.084;2023-04-24T13:41:27;15.20;;;13.87;;
17566;SDS011;8901;52.088;5.084;2023-04-24T13:43:54;16.47;;;14.93;;
17566;SDS011;8901;52.088;5.084;2023-04-24T13:46:21;18.43;;;17.03;;
17566;SDS011;8901;52.088;5.084;2023-04-24T13:48:51;17.73;;;16.10;;
17566;SDS011;8901;52.088;5.084;2023-04-24T13:51:27;16.27;;;14.50;;
17566;SDS011;8901;52.088;5.084;2023-04-24T13:53:56;17.60;;;16.10;;
17566;SDS011;8901;52.088;5.084;2023-04-24T13:56:24;16.13;;;14.73;;
17566;SDS011;8901;52.088;5.084;2023-04-24T13:59:00;14.10;;;12.90;;
17566;SDS011;8901;52.088;5.084;2023-04-24T14:03:58;13.83;;;12.43;;
17566;SDS011;8901;52.088;5.084;2023-04-24T14:06:27;16.43;;;14.90;;
17566;SDS011;8901;52.088;5.084;2023-04-24T14:08:55;14.53;;;12.97;;
17566;SDS011;8901;52.088;5.084;2023-04-24T14:11:33;15.30;;;12.47;;
17566;SDS011;8901;52.088;5.084;2023-04-24T14:14:04;15.13;;;13.27;;
17566;SDS011;8901;52.088;5.084;2023-04-24T14:19:02;12.73;;;11.43;;
17566;SDS011;8901;52.088;5.084;2023-04-24T14:21:31;15.00;;;13.40;;
17566;SDS011;8901;52.088;5.084;2023-04-24T14:24:00;14.70;;;13.07;;
17566;SDS011;8901;52.088;5.084;2023-04-24T14:26:27;13.70;;;12.40;;
17566;SDS011;8901;52.088;5.084;2023-04-24T14:28:55;13.40;;;12.33;;
17566;SDS011;8901;52.088;5.084;2023-04-24T14:31:39;12.97;;;10.87;;
17566;SDS011;8901;52.088;5.084;2023-04-24T14:34:06;12.87;;;10.40;;
17566;SDS011;8901;52.088;5.084;2023-04-24T14:36:34;13.37;;;8.30;;
17566;SDS011;8901;52.088;5.084;2023-04-24T14:39:01;9.60;;;7.43;;
17566;SDS011;8901;52.088;5.084;2023-04-24T14:41:31;12.33;;;8.50;;
17566;SDS011;8901;52.088;5.084;2023-04-24T14:44:00;12.57;;;8.90;;
17566;SDS011;8901;52.088;5.084;2023-04-24T14:46:27;14.80;;;11.30;;
17566;SDS011;8901;52.088;5.084;2023-04-24T14:48:56;12.70;;;11.33;;
17566;SDS011;8901;52.088;5.084;2023-04-24T14:51:24;14.30;;;12.83;;
17566;SDS011;8901;52.088;5.084;2023-04-24T14:53:51;13.60;;;10.77;;
17566;SDS011;8901;52.088;5.084;2023-04-24T14:56:19;14.23;;;11.90;;
17566;SDS011;8901;52.088;5.084;2023-04-24T14:58:46;18.03;;;14.27;;
17566;SDS011;8901;52.088;5.084;2023-04-24T15:01:13;14.17;;;9.67;;
17566;SDS011;8901;52.088;5.084;2023-04-24T15:03:40;14.57;;;10.63;;
17566;SDS011;8901;52.088;5.084;2023-04-24T15:06:09;12.57;;;11.27;;
17566;SDS011;8901;52.088;5.084;2023-04-24T15:08:36;11.30;;;10.27;;
17566;SDS011;8901;52.088;5.084;2023-04-24T15:11:03;13.37;;;11.90;;
17566;SDS011;8901;52.088;5.084;2023-04-24T15:13:30;11.63;;;10.40;;
17566;SDS011;8901;52.088;5.084;2023-04-24T15:15:58;11.70;;;9.57;;
17566;SDS011;8901;52.088;5.084;2023-04-24T15:18:25;13.33;;;11.37;;
17566;SDS011;8901;52.088;5.084;2023-04-24T15:20:53;17.27;;;13.90;;
17566;SDS011;8901;52.088;5.084;2023-04-24T15:23:22;16.40;;;15.00;;
17566;SDS011;8901;52.088;5.084;2023-04-24T15:25:49;20.40;;;14.17;;
17566;SDS011;8901;52.088;5.084;2023-04-24T15:28:16;16.03;;;14.43;;
17566;SDS011;8901;52.088;5.084;2023-04-24T15:30:43;16.90;;;15.20;;
17566;SDS011;8901;52.088;5.084;2023-04-24T15:33:11;17.50;;;15.70;;
17566;SDS011;8901;52.088;5.084;2023-04-24T15:35:38;16.47;;;14.97;;
17566;SDS011;8901;52.088;5.084;2023-04-24T15:38:05;16.40;;;15.07;;